sensor_id;sensor_type;location;lat;lon;timestamp;P1;durP1;ratioP1;P2;durP2;ratioP2
4650;SDS011;2338;49.602;8.722;2023-04-25T00:00:21;7.10;;;5.30;;
4650;SDS011;2338;49.602;8.722;2023-04-25T00:03:07;6.87;;;5.33;;
4650;SDS011;2338;49.602;8.722;2023-04-25T00:05:52;6.87;;;5.40;;
4650;SDS011;2338;49.602;8.722;2023-04-25T00:08:41;9.17;;;5.23;;
4650;SDS011;2338;49.602;8.722;2023-04-25T00:11:27;6.70;;;5.87;;
4650;SDS011;2338;49.602;8.722;2023-04-25T00:14:14;6.40;;;5.73;;
4650;SDS011;2338;49.602;8.722;2023-04-25T00:17:00;6.57;;;5.60;;
4650;SDS011;2338;49.602;8.722;2023-04-25T00:19:47;7.90;;;6.43;;
4650;SDS011;2338;49.602;8.722;2023-04-25T00:22:33;7.10;;;6.10;;
4650;SDS011;2338;49.602;8.722;2023-04-25T00:25:22;7.27;;;5.97;;
4650;SDS011;2338;49.602;8.722;2023-04-25T00:28:08;6.53;;;5.67;;
4650;SDS011;2338;49.602;8.722;2023-04-25T00:30:53;15.27;;;6.33;;
4650;SDS011;2338;49.602;8.722;2023-04-25T00:33:39;6.80;;;5.90;;
4650;SDS011;2338;49.602;8.722;2023-04-25T00:36:25;6.33;;;5.50;;
4650;SDS011;2338;49.602;8.722;2023-04-25T00:39:11;9.13;;;6.77;;
4650;SDS011;2338;49.602;8.722;2023-04-25T00:41:58;7.73;;;5.77;;
4650;SDS011;2338;49.602;8.722;2023-04-25T00:44:45;7.70;;;5.73;;
4650;SDS011;2338;49.602;8.722;2023-04-25T00:47:32;6.10;;;5.40;;
4650;SDS011;2338;49.602;8.722;2023-04-25T00:50:18;8.13;;;6.43;;
4650;SDS011;2338;49.602;8.722;2023-04-25T00:53:04;6.80;;;6.07;;
4650;SDS011;2338;49.602;8.722;2023-04-25T00:55:50;6.30;;;5.57;;
4650;SDS011;2338;49.602;8.722;2023-04-25T00:58:37;6.70;;;5.60;;
4650;SDS011;2338;49.602;8.722;2023-04-25T01:01:25;9.87;;;6.27;;
4650;SDS011;2338;49.602;8.722;2023-04-25T01:04:10;7.57;;;5.43;;
4650;SDS011;2338;49.602;8.722;2023-04-25T01:06:56;10.80;;;6.60;;
4650;SDS011;2338;49.602;8.722;2023-04-25T01:09:42;8.87;;;7.20;;
4650;SDS011;2338;49.602;8.722;2023-04-25T01:12:28;10.70;;;6.60;;
4650;SDS011;2338;49.602;8.722;2023-04-25T01:15:15;8.80;;;7.17;;
4650;SDS011;2338;49.602;8.722;2023-04-25T01:18:01;9.20;;;6.93;;
4650;SDS011;2338;49.602;8.722;2023-04-25T01:20:47;6.70;;;5.80;;
4650;SDS011;2338;49.602;8.722;2023-04-25T01:23:37;8.90;;;7.10;;
4650;SDS011;2338;49.602;8.722;2023-04-25T01:26:23;10.30;;;7.67;;
4650;SDS011;2338;49.602;8.722;2023-04-25T01:29:10;9.07;;;6.90;;
4650;SDS011;2338;49.602;8.722;2023-04-25T01:31:56;10.57;;;7.47;;
4650;SDS011;2338;49.602;8.722;2023-04-25T01:34:42;8.10;;;6.50;;
4650;SDS011;2338;49.602;8.722;2023-04-25T01:37:28;11.83;;;6.97;;
4650;SDS011;2338;49.602;8.722;2023-04-25T01:40:15;8.63;;;6.80;;
4650;SDS011;2338;49.602;8.722;2023-04-25T01:43:02;8.13;;;6.73;;
4650;SDS011;2338;49.602;8.722;2023-04-25T01:45:49;10.70;;;8.00;;
4650;SDS011;2338;49.602;8.722;2023-04-25T01:48:34;10.37;;;6.50;;
4650;SDS011;2338;49.602;8.722;2023-04-25T01:51:20;8.83;;;7.77;;
4650;SDS011;2338;49.602;8.722;2023-04-25T01:54:06;10.23;;;6.80;;
4650;SDS011;2338;49.602;8.722;2023-04-25T01:56:54;9.73;;;6.77;;
4650;SDS011;2338;49.602;8.722;2023-04-25T01:59:42;9.10;;;7.17;;
4650;SDS011;2338;49.602;8.722;2023-04-25T02:02:28;14.60;;;8.37;;
4650;SDS011;2338;49.602;8.722;2023-04-25T02:05:14;8.77;;;7.80;;
4650;SDS011;2338;49.602;8.722;2023-04-25T02:08:00;10.10;;;8.20;;
4650;SDS011;2338;49.602;8.722;2023-04-25T02:10:45;15.50;;;8.13;;
4650;SDS011;2338;49.602;8.722;2023-04-25T02:13:33;10.13;;;7.77;;
4650;SDS011;2338;49.602;8.722;2023-04-25T02:16:18;8.53;;;7.47;;
4650;SDS011;2338;49.602;8.722;2023-04-25T02:19:04;9.60;;;7.30;;
4650;SDS011;2338;49.602;8.722;2023-04-25T02:21:50;11.07;;;7.87;;
4650;SDS011;2338;49.602;8.722;2023-04-25T02:24:36;9.80;;;8.10;;
4650;SDS011;2338;49.602;8.722;2023-04-25T02:27:21;14.00;;;8.23;;
4650;SDS011;2338;49.602;8.722;2023-04-25T02:30:09;13.23;;;8.53;;
4650;SDS011;2338;49.602;8.722;2023-04-25T02:32:55;9.67;;;8.53;;
4650;SDS011;2338;49.602;8.722;2023-04-25T02:35:40;9.83;;;8.27;;
4650;SDS011;2338;49.602;8.722;2023-04-25T02:38:26;8.60;;;7.67;;
4650;SDS011;2338;49.602;8.722;2023-04-25T02:41:12;9.00;;;7.67;;
4650;SDS011;2338;49.602;8.722;2023-04-25T02:43:57;10.10;;;8.50;;
4650;SDS011;2338;49.602;8.722;2023-04-25T02:46:44;12.73;;;8.00;;
4650;SDS011;2338;49.602;8.722;2023-04-25T02:49:30;11.10;;;8.63;;
4650;SDS011;2338;49.602;8.722;2023-04-25T02:52:16;11.20;;;9.07;;
4650;SDS011;2338;49.602;8.722;2023-04-25T02:55:01;13.20;;;10.27;;
4650;SDS011;2338;49.602;8.722;2023-04-25T02:57:47;9.43;;;8.17;;
4650;SDS011;2338;49.602;8.722;2023-04-25T03:00:33;15.10;;;9.60;;
4650;SDS011;2338;49.602;8.722;2023-04-25T03:03:20;12.47;;;9.10;;
4650;SDS011;2338;49.602;8.722;2023-04-25T03:06:06;13.10;;;9.30;;
4650;SDS011;2338;49.602;8.722;2023-04-25T03:08:51;10.60;;;8.30;;
4650;SDS011;2338;49.602;8.722;2023-04-25T03:11:38;9.17;;;8.27;;
4650;SDS011;2338;49.602;8.722;2023-04-25T03:14:24;10.00;;;7.80;;
4650;SDS011;2338;49.602;8.722;2023-04-25T03:17:09;9.27;;;8.07;;
4650;SDS011;2338;49.602;8.722;2023-04-25T03:19:57;10.27;;;8.37;;
4650;SDS011;2338;49.602;8.722;2023-04-25T03:22:42;10.07;;;8.50;;
4650;SDS011;2338;49.602;8.722;2023-04-25T03:25:28;9.77;;;8.10;;
4650;SDS011;2338;49.602;8.722;2023-04-25T03:28:14;11.00;;;8.47;;
4650;SDS011;2338;49.602;8.722;2023-04-25T03:31:00;10.93;;;8.80;;
4650;SDS011;2338;49.602;8.722;2023-04-25T03:33:46;9.63;;;7.87;;
4650;SDS011;2338;49.602;8.722;2023-04-25T03:36:32;13.37;;;8.60;;
4650;SDS011;2338;49.602;8.722;2023-04-25T03:39:18;10.87;;;8.60;;
4650;SDS011;2338;49.602;8.722;2023-04-25T03:42:04;9.40;;;8.20;;
4650;SDS011;2338;49.602;8.722;2023-04-25T03:44:49;9.57;;;8.53;;
4650;SDS011;2338;49.602;8.722;2023-04-25T03:47:36;10.63;;;8.50;;
4650;SDS011;2338;49.602;8.722;2023-04-25T03:50:22;10.93;;;8.90;;
4650;SDS011;2338;49.602;8.722;2023-04-25T03:53:09;10.60;;;8.30;;
4650;SDS011;2338;49.602;8.722;2023-04-25T03:55:55;10.07;;;8.30;;
4650;SDS011;2338;49.602;8.722;2023-04-25T03:58:41;11.23;;;8.60;;
4650;SDS011;2338;49.602;8.722;2023-04-25T04:01:26;15.97;;;9.50;;
4650;SDS011;2338;49.602;8.722;2023-04-25T04:04:12;12.57;;;9.67;;
4650;SDS011;2338;49.602;8.722;2023-04-25T04:06:58;11.60;;;8.13;;
4650;SDS011;2338;49.602;8.722;2023-04-25T04:09:45;11.40;;;9.67;;
4650;SDS011;2338;49.602;8.722;2023-04-25T04:12:30;10.57;;;9.00;;
4650;SDS011;2338;49.602;8.722;2023-04-25T04:15:16;13.87;;;10.73;;
4650;SDS011;2338;49.602;8.722;2023-04-25T04:18:02;12.50;;;9.90;;
4650;SDS011;2338;49.602;8.722;2023-04-25T04:20:47;14.57;;;10.20;;
4650;SDS011;2338;49.602;8.722;2023-04-25T04:23:33;13.60;;;10.83;;
4650;SDS011;2338;49.602;8.722;2023-04-25T04:26:21;12.17;;;10.27;;
4650;SDS011;2338;49.602;8.722;2023-04-25T04:29:08;12.27;;;9.93;;
4650;SDS011;2338;49.602;8.722;2023-04-25T04:31:54;15.10;;;10.70;;
4650;SDS011;2338;49.602;8.722;2023-04-25T04:34:40;13.13;;;10.67;;
4650;SDS011;2338;49.602;8.722;2023-04-25T04:37:26;14.87;;;11.67;;
4650;SDS011;2338;49.602;8.722;2023-04-25T04:40:11;12.07;;;10.07;;
4650;SDS011;2338;49.602;8.722;2023-04-25T04:43:00;13.77;;;11.40;;
4650;SDS011;2338;49.602;8.722;2023-04-25T04:45:45;13.97;;;11.70;;
4650;SDS011;2338;49.602;8.722;2023-04-25T04:48:31;15.80;;;12.30;;
4650;SDS011;2338;49.602;8.722;2023-04-25T04:51:17;14.87;;;12.17;;
4650;SDS011;2338;49.602;8.722;2023-04-25T04:54:04;13.97;;;11.20;;
4650;SDS011;2338;49.602;8.722;2023-04-25T04:56:50;13.90;;;11.80;;
4650;SDS011;2338;49.602;8.722;2023-04-25T04:59:37;15.47;;;11.53;;
4650;SDS011;2338;49.602;8.722;2023-04-25T05:02:23;14.00;;;11.53;;
4650;SDS011;2338;49.602;8.722;2023-04-25T05:05:09;13.40;;;11.47;;
4650;SDS011;2338;49.602;8.722;2023-04-25T05:07:55;15.37;;;11.27;;
4650;SDS011;2338;49.602;8.722;2023-04-25T05:10:41;14.60;;;12.07;;
4650;SDS011;2338;49.602;8.722;2023-04-25T05:13:26;16.37;;;12.20;;
4650;SDS011;2338;49.602;8.722;2023-04-25T05:16:13;17.83;;;12.10;;
4650;SDS011;2338;49.602;8.722;2023-04-25T05:18:59;13.80;;;11.73;;
4650;SDS011;2338;49.602;8.722;2023-04-25T05:21:45;18.33;;;12.93;;
4650;SDS011;2338;49.602;8.722;2023-04-25T05:24:31;20.33;;;14.77;;
4650;SDS011;2338;49.602;8.722;2023-04-25T05:27:17;14.40;;;12.50;;
4650;SDS011;2338;49.602;8.722;2023-04-25T05:30:03;18.07;;;12.37;;
4650;SDS011;2338;49.602;8.722;2023-04-25T05:32:52;13.23;;;10.63;;
4650;SDS011;2338;49.602;8.722;2023-04-25T05:35:38;14.17;;;12.53;;
4650;SDS011;2338;49.602;8.722;2023-04-25T05:38:23;16.23;;;13.03;;
4650;SDS011;2338;49.602;8.722;2023-04-25T05:41:09;16.47;;;12.23;;
4650;SDS011;2338;49.602;8.722;2023-04-25T05:43:55;13.90;;;12.07;;
4650;SDS011;2338;49.602;8.722;2023-04-25T05:46:40;15.73;;;12.90;;
4650;SDS011;2338;49.602;8.722;2023-04-25T05:49:27;17.60;;;13.30;;
4650;SDS011;2338;49.602;8.722;2023-04-25T05:52:13;18.23;;;13.60;;
4650;SDS011;2338;49.602;8.722;2023-04-25T05:54:59;16.90;;;13.33;;
4650;SDS011;2338;49.602;8.722;2023-04-25T05:57:45;23.80;;;13.83;;
4650;SDS011;2338;49.602;8.722;2023-04-25T06:00:31;18.30;;;13.50;;
4650;SDS011;2338;49.602;8.722;2023-04-25T06:03:17;17.10;;;13.17;;
4650;SDS011;2338;49.602;8.722;2023-04-25T06:06:04;16.30;;;12.27;;
4650;SDS011;2338;49.602;8.722;2023-04-25T06:08:50;22.10;;;12.47;;
4650;SDS011;2338;49.602;8.722;2023-04-25T06:11:35;15.17;;;12.87;;
4650;SDS011;2338;49.602;8.722;2023-04-25T06:14:21;18.40;;;12.57;;
4650;SDS011;2338;49.602;8.722;2023-04-25T06:17:07;18.90;;;11.80;;
4650;SDS011;2338;49.602;8.722;2023-04-25T06:19:52;12.20;;;10.57;;
4650;SDS011;2338;49.602;8.722;2023-04-25T06:22:40;16.80;;;12.20;;
4650;SDS011;2338;49.602;8.722;2023-04-25T06:25:25;11.70;;;10.50;;
4650;SDS011;2338;49.602;8.722;2023-04-25T06:28:11;13.37;;;10.43;;
4650;SDS011;2338;49.602;8.722;2023-04-25T06:30:57;11.93;;;10.30;;
4650;SDS011;2338;49.602;8.722;2023-04-25T06:33:43;12.80;;;9.30;;
4650;SDS011;2338;49.602;8.722;2023-04-25T06:36:28;10.53;;;7.20;;
4650;SDS011;2338;49.602;8.722;2023-04-25T06:39:15;11.47;;;8.07;;
4650;SDS011;2338;49.602;8.722;2023-04-25T06:42:01;17.23;;;8.80;;
4650;SDS011;2338;49.602;8.722;2023-04-25T06:44:46;16.63;;;8.93;;
4650;SDS011;2338;49.602;8.722;2023-04-25T06:47:32;15.27;;;8.70;;
4650;SDS011;2338;49.602;8.722;2023-04-25T06:50:17;12.20;;;8.43;;
4650;SDS011;2338;49.602;8.722;2023-04-25T06:53:03;13.63;;;7.60;;
4650;SDS011;2338;49.602;8.722;2023-04-25T06:55:50;14.27;;;8.07;;
4650;SDS011;2338;49.602;8.722;2023-04-25T06:58:35;12.07;;;8.70;;
4650;SDS011;2338;49.602;8.722;2023-04-25T07:01:21;10.53;;;7.90;;
4650;SDS011;2338;49.602;8.722;2023-04-25T07:04:06;9.80;;;6.20;;
4650;SDS011;2338;49.602;8.722;2023-04-25T07:06:52;14.70;;;7.17;;
4650;SDS011;2338;49.602;8.722;2023-04-25T07:09:38;9.30;;;6.60;;
4650;SDS011;2338;49.602;8.722;2023-04-25T07:12:25;14.90;;;6.40;;
4650;SDS011;2338;49.602;8.722;2023-04-25T07:15:11;9.97;;;5.80;;
4650;SDS011;2338;49.602;8.722;2023-04-25T07:17:57;8.23;;;5.20;;
4650;SDS011;2338;49.602;8.722;2023-04-25T07:20:42;8.57;;;4.50;;
4650;SDS011;2338;49.602;8.722;2023-04-25T07:23:28;16.77;;;4.73;;
4650;SDS011;2338;49.602;8.722;2023-04-25T07:26:13;8.63;;;5.10;;
4650;SDS011;2338;49.602;8.722;2023-04-25T07:29:01;9.83;;;5.20;;
4650;SDS011;2338;49.602;8.722;2023-04-25T07:31:47;7.43;;;4.87;;
4650;SDS011;2338;49.602;8.722;2023-04-25T07:34:32;16.43;;;5.00;;
4650;SDS011;2338;49.602;8.722;2023-04-25T07:37:21;7.90;;;4.53;;
4650;SDS011;2338;49.602;8.722;2023-04-25T07:40:07;7.60;;;4.10;;
4650;SDS011;2338;49.602;8.722;2023-04-25T07:42:55;11.00;;;4.40;;
4650;SDS011;2338;49.602;8.722;2023-04-25T07:45:42;12.70;;;4.87;;
4650;SDS011;2338;49.602;8.722;2023-04-25T07:48:28;11.30;;;5.40;;
4650;SDS011;2338;49.602;8.722;2023-04-25T07:51:13;6.57;;;3.93;;
4650;SDS011;2338;49.602;8.722;2023-04-25T07:53:59;12.23;;;4.67;;
4650;SDS011;2338;49.602;8.722;2023-04-25T07:56:45;8.90;;;4.80;;
4650;SDS011;2338;49.602;8.722;2023-04-25T07:59:30;9.00;;;4.70;;
4650;SDS011;2338;49.602;8.722;2023-04-25T08:02:17;8.07;;;4.03;;
4650;SDS011;2338;49.602;8.722;2023-04-25T08:05:03;9.43;;;4.67;;
4650;SDS011;2338;49.602;8.722;2023-04-25T08:07:51;9.43;;;4.97;;
4650;SDS011;2338;49.602;8.722;2023-04-25T08:10:37;6.63;;;3.70;;
4650;SDS011;2338;49.602;8.722;2023-04-25T08:13:23;11.30;;;3.60;;
4650;SDS011;2338;49.602;8.722;2023-04-25T08:16:08;17.27;;;4.30;;
4650;SDS011;2338;49.602;8.722;2023-04-25T08:18:55;11.37;;;5.93;;
4650;SDS011;2338;49.602;8.722;2023-04-25T08:21:41;10.80;;;4.67;;
4650;SDS011;2338;49.602;8.722;2023-04-25T08:24:27;12.87;;;3.80;;
4650;SDS011;2338;49.602;8.722;2023-04-25T08:27:12;7.97;;;4.27;;
4650;SDS011;2338;49.602;8.722;2023-04-25T08:29:58;9.43;;;4.70;;
4650;SDS011;2338;49.602;8.722;2023-04-25T08:32:44;10.07;;;4.13;;
4650;SDS011;2338;49.602;8.722;2023-04-25T08:35:31;9.47;;;5.07;;
4650;SDS011;2338;49.602;8.722;2023-04-25T08:38:18;6.60;;;4.20;;
4650;SDS011;2338;49.602;8.722;2023-04-25T08:41:04;9.83;;;4.67;;
4650;SDS011;2338;49.602;8.722;2023-04-25T08:43:51;10.63;;;4.60;;
4650;SDS011;2338;49.602;8.722;2023-04-25T08:46:38;6.47;;;4.20;;
4650;SDS011;2338;49.602;8.722;2023-04-25T08:49:26;11.00;;;5.20;;
4650;SDS011;2338;49.602;8.722;2023-04-25T08:52:13;6.67;;;4.20;;
4650;SDS011;2338;49.602;8.722;2023-04-25T08:54:59;9.87;;;5.00;;
4650;SDS011;2338;49.602;8.722;2023-04-25T08:57:47;18.90;;;5.57;;
4650;SDS011;2338;49.602;8.722;2023-04-25T09:00:33;16.53;;;5.10;;
4650;SDS011;2338;49.602;8.722;2023-04-25T09:03:18;13.90;;;6.20;;
4650;SDS011;2338;49.602;8.722;2023-04-25T09:06:04;10.27;;;5.30;;
4650;SDS011;2338;49.602;8.722;2023-04-25T09:08:51;13.63;;;6.23;;
4650;SDS011;2338;49.602;8.722;2023-04-25T09:11:37;12.03;;;6.47;;
4650;SDS011;2338;49.602;8.722;2023-04-25T09:14:24;11.80;;;5.23;;
4650;SDS011;2338;49.602;8.722;2023-04-25T09:17:11;16.37;;;6.20;;
4650;SDS011;2338;49.602;8.722;2023-04-25T09:20:05;15.53;;;7.17;;
4650;SDS011;2338;49.602;8.722;2023-04-25T09:23:00;13.70;;;6.43;;
4650;SDS011;2338;49.602;8.722;2023-04-25T09:25:49;14.43;;;6.23;;
4650;SDS011;2338;49.602;8.722;2023-04-25T09:28:35;23.70;;;6.70;;
4650;SDS011;2338;49.602;8.722;2023-04-25T09:31:22;14.83;;;6.03;;
4650;SDS011;2338;49.602;8.722;2023-04-25T09:34:08;12.33;;;5.20;;
4650;SDS011;2338;49.602;8.722;2023-04-25T09:37:01;10.77;;;6.10;;
4650;SDS011;2338;49.602;8.722;2023-04-25T09:39:46;8.10;;;5.00;;
4650;SDS011;2338;49.602;8.722;2023-04-25T09:42:34;9.87;;;5.90;;
4650;SDS011;2338;49.602;8.722;2023-04-25T09:45:20;13.87;;;6.03;;
4650;SDS011;2338;49.602;8.722;2023-04-25T09:48:06;9.07;;;5.17;;
4650;SDS011;2338;49.602;8.722;2023-04-25T09:53:52;8.63;;;5.73;;
4650;SDS011;2338;49.602;8.722;2023-04-25T09:56:38;9.97;;;4.87;;
4650;SDS011;2338;49.602;8.722;2023-04-25T09:59:25;9.00;;;5.13;;
4650;SDS011;2338;49.602;8.722;2023-04-25T10:02:14;11.50;;;6.47;;
4650;SDS011;2338;49.602;8.722;2023-04-25T10:05:05;11.77;;;5.97;;
4650;SDS011;2338;49.602;8.722;2023-04-25T10:07:52;14.93;;;6.30;;
4650;SDS011;2338;49.602;8.722;2023-04-25T10:10:38;8.87;;;5.80;;
4650;SDS011;2338;49.602;8.722;2023-04-25T10:13:25;8.90;;;6.43;;
4650;SDS011;2338;49.602;8.722;2023-04-25T10:16:14;12.33;;;5.33;;
4650;SDS011;2338;49.602;8.722;2023-04-25T10:19:01;10.77;;;4.87;;
4650;SDS011;2338;49.602;8.722;2023-04-25T10:21:50;7.60;;;4.80;;
4650;SDS011;2338;49.602;8.722;2023-04-25T10:24:37;11.87;;;5.00;;
4650;SDS011;2338;49.602;8.722;2023-04-25T10:27:24;12.23;;;5.27;;
4650;SDS011;2338;49.602;8.722;2023-04-25T10:30:13;11.00;;;5.03;;
4650;SDS011;2338;49.602;8.722;2023-04-25T10:33:01;17.20;;;8.20;;
4650;SDS011;2338;49.602;8.722;2023-04-25T10:35:46;7.87;;;5.00;;
4650;SDS011;2338;49.602;8.722;2023-04-25T10:38:32;19.57;;;4.97;;
4650;SDS011;2338;49.602;8.722;2023-04-25T10:41:19;13.83;;;4.80;;
4650;SDS011;2338;49.602;8.722;2023-04-25T10:44:06;7.77;;;4.57;;
4650;SDS011;2338;49.602;8.722;2023-04-25T10:46:54;7.30;;;4.23;;
4650;SDS011;2338;49.602;8.722;2023-04-25T10:49:43;12.40;;;5.03;;
4650;SDS011;2338;49.602;8.722;2023-04-25T10:52:28;13.43;;;5.10;;
4650;SDS011;2338;49.602;8.722;2023-04-25T10:55:14;18.00;;;5.33;;
4650;SDS011;2338;49.602;8.722;2023-04-25T10:58:00;9.50;;;3.93;;
4650;SDS011;2338;49.602;8.722;2023-04-25T11:00:46;12.23;;;5.03;;
4650;SDS011;2338;49.602;8.722;2023-04-25T11:03:32;12.40;;;4.20;;
4650;SDS011;2338;49.602;8.722;2023-04-25T11:06:26;8.57;;;4.00;;
4650;SDS011;2338;49.602;8.722;2023-04-25T11:09:20;9.03;;;3.80;;
4650;SDS011;2338;49.602;8.722;2023-04-25T11:12:09;9.63;;;3.60;;
4650;SDS011;2338;49.602;8.722;2023-04-25T11:14:59;5.00;;;2.90;;
4650;SDS011;2338;49.602;8.722;2023-04-25T11:17:45;6.90;;;3.63;;
4650;SDS011;2338;49.602;8.722;2023-04-25T11:20:31;12.13;;;4.73;;
4650;SDS011;2338;49.602;8.722;2023-04-25T11:23:18;8.00;;;3.97;;
4650;SDS011;2338;49.602;8.722;2023-04-25T11:26:04;9.60;;;3.10;;
4650;SDS011;2338;49.602;8.722;2023-04-25T11:28:50;7.00;;;3.80;;
4650;SDS011;2338;49.602;8.722;2023-04-25T11:31:36;12.07;;;3.90;;
4650;SDS011;2338;49.602;8.722;2023-04-25T11:34:21;7.37;;;4.00;;
4650;SDS011;2338;49.602;8.722;2023-04-25T11:37:08;8.03;;;3.87;;
4650;SDS011;2338;49.602;8.722;2023-04-25T11:39:57;10.93;;;3.30;;
4650;SDS011;2338;49.602;8.722;2023-04-25T11:42:43;7.30;;;3.70;;
4650;SDS011;2338;49.602;8.722;2023-04-25T11:45:30;6.50;;;4.00;;
4650;SDS011;2338;49.602;8.722;2023-04-25T11:48:16;5.90;;;3.60;;
4650;SDS011;2338;49.602;8.722;2023-04-25T11:51:02;11.60;;;4.27;;
4650;SDS011;2338;49.602;8.722;2023-04-25T11:53:49;4.77;;;3.03;;
4650;SDS011;2338;49.602;8.722;2023-04-25T11:56:36;10.23;;;4.10;;
4650;SDS011;2338;49.602;8.722;2023-04-25T11:59:23;7.53;;;4.27;;
4650;SDS011;2338;49.602;8.722;2023-04-25T12:02:09;14.40;;;3.87;;
4650;SDS011;2338;49.602;8.722;2023-04-25T12:05:09;10.53;;;4.10;;
4650;SDS011;2338;49.602;8.722;2023-04-25T12:07:55;6.33;;;4.40;;
4650;SDS011;2338;49.602;8.722;2023-04-25T12:10:42;6.13;;;3.40;;
4650;SDS011;2338;49.602;8.722;2023-04-25T12:13:31;9.20;;;4.40;;
4650;SDS011;2338;49.602;8.722;2023-04-25T12:16:16;8.57;;;4.20;;
4650;SDS011;2338;49.602;8.722;2023-04-25T12:19:02;6.40;;;4.30;;
4650;SDS011;2338;49.602;8.722;2023-04-25T12:21:48;7.50;;;4.20;;
4650;SDS011;2338;49.602;8.722;2023-04-25T12:24:35;4.80;;;3.67;;
4650;SDS011;2338;49.602;8.722;2023-04-25T12:27:20;5.50;;;3.73;;
4650;SDS011;2338;49.602;8.722;2023-04-25T12:30:08;6.43;;;4.17;;
4650;SDS011;2338;49.602;8.722;2023-04-25T12:32:55;6.43;;;4.30;;
4650;SDS011;2338;49.602;8.722;2023-04-25T12:35:41;10.33;;;4.77;;
4650;SDS011;2338;49.602;8.722;2023-04-25T12:38:27;6.70;;;4.30;;
4650;SDS011;2338;49.602;8.722;2023-04-25T12:41:14;7.43;;;4.60;;
4650;SDS011;2338;49.602;8.722;2023-04-25T12:43:59;11.30;;;4.40;;
4650;SDS011;2338;49.602;8.722;2023-04-25T12:46:46;8.10;;;4.37;;
4650;SDS011;2338;49.602;8.722;2023-04-25T12:49:33;6.60;;;4.90;;
4650;SDS011;2338;49.602;8.722;2023-04-25T12:52:19;8.83;;;4.97;;
4650;SDS011;2338;49.602;8.722;2023-04-25T12:55:05;12.73;;;4.90;;
4650;SDS011;2338;49.602;8.722;2023-04-25T12:57:51;6.30;;;4.10;;
4650;SDS011;2338;49.602;8.722;2023-04-25T13:00:37;8.40;;;5.00;;
4650;SDS011;2338;49.602;8.722;2023-04-25T13:03:24;8.40;;;4.77;;
4650;SDS011;2338;49.602;8.722;2023-04-25T13:06:09;9.03;;;4.97;;
4650;SDS011;2338;49.602;8.722;2023-04-25T13:08:56;6.60;;;4.63;;
4650;SDS011;2338;49.602;8.722;2023-04-25T13:11:42;11.80;;;5.40;;
4650;SDS011;2338;49.602;8.722;2023-04-25T13:14:28;10.70;;;4.67;;
4650;SDS011;2338;49.602;8.722;2023-04-25T13:17:14;10.40;;;5.00;;
4650;SDS011;2338;49.602;8.722;2023-04-25T13:20:01;9.53;;;4.73;;
4650;SDS011;2338;49.602;8.722;2023-04-25T13:22:48;9.37;;;4.97;;
4650;SDS011;2338;49.602;8.722;2023-04-25T13:25:33;11.10;;;5.00;;
4650;SDS011;2338;49.602;8.722;2023-04-25T13:28:19;12.50;;;4.87;;
4650;SDS011;2338;49.602;8.722;2023-04-25T13:31:05;6.27;;;4.43;;
4650;SDS011;2338;49.602;8.722;2023-04-25T13:33:51;13.30;;;5.20;;
4650;SDS011;2338;49.602;8.722;2023-04-25T13:36:38;10.50;;;5.40;;
4650;SDS011;2338;49.602;8.722;2023-04-25T13:39:23;9.87;;;5.70;;
4650;SDS011;2338;49.602;8.722;2023-04-25T13:42:09;11.10;;;5.80;;
4650;SDS011;2338;49.602;8.722;2023-04-25T13:44:55;8.30;;;4.73;;
4650;SDS011;2338;49.602;8.722;2023-04-25T13:47:41;8.40;;;4.80;;
4650;SDS011;2338;49.602;8.722;2023-04-25T13:50:26;18.93;;;4.80;;
4650;SDS011;2338;49.602;8.722;2023-04-25T13:53:14;8.37;;;4.83;;
4650;SDS011;2338;49.602;8.722;2023-04-25T13:55:59;12.00;;;4.90;;
4650;SDS011;2338;49.602;8.722;2023-04-25T13:58:45;11.60;;;5.30;;
4650;SDS011;2338;49.602;8.722;2023-04-25T14:01:30;10.40;;;5.10;;
4650;SDS011;2338;49.602;8.722;2023-04-25T14:04:17;9.03;;;5.60;;
4650;SDS011;2338;49.602;8.722;2023-04-25T14:07:03;6.83;;;4.40;;
4650;SDS011;2338;49.602;8.722;2023-04-25T14:09:51;7.33;;;4.47;;
4650;SDS011;2338;49.602;8.722;2023-04-25T14:12:36;8.90;;;4.60;;
4650;SDS011;2338;49.602;8.722;2023-04-25T14:15:22;10.70;;;5.30;;
4650;SDS011;2338;49.602;8.722;2023-04-25T14:18:09;17.10;;;5.77;;
4650;SDS011;2338;49.602;8.722;2023-04-25T14:20:54;11.73;;;4.90;;
4650;SDS011;2338;49.602;8.722;2023-04-25T14:23:40;16.10;;;5.43;;
4650;SDS011;2338;49.602;8.722;2023-04-25T14:26:27;10.00;;;5.23;;
4650;SDS011;2338;49.602;8.722;2023-04-25T14:29:13;16.50;;;4.63;;
4650;SDS011;2338;49.602;8.722;2023-04-25T14:31:59;12.20;;;4.67;;
4650;SDS011;2338;49.602;8.722;2023-04-25T14:34:45;10.37;;;4.47;;
4650;SDS011;2338;49.602;8.722;2023-04-25T14:37:31;18.17;;;4.80;;
4650;SDS011;2338;49.602;8.722;2023-04-25T14:40:16;9.17;;;3.93;;
4650;SDS011;2338;49.602;8.722;2023-04-25T14:43:03;12.47;;;4.73;;
4650;SDS011;2338;49.602;8.722;2023-04-25T14:45:49;10.97;;;4.73;;
4650;SDS011;2338;49.602;8.722;2023-04-25T14:48:35;6.37;;;3.47;;
4650;SDS011;2338;49.602;8.722;2023-04-25T14:51:21;6.43;;;3.90;;
4650;SDS011;2338;49.602;8.722;2023-04-25T14:54:06;10.73;;;4.60;;
4650;SDS011;2338;49.602;8.722;2023-04-25T14:56:53;11.77;;;4.17;;
4650;SDS011;2338;49.602;8.722;2023-04-25T14:59:40;9.20;;;4.23;;
4650;SDS011;2338;49.602;8.722;2023-04-25T15:02:26;6.37;;;4.60;;
4650;SDS011;2338;49.602;8.722;2023-04-25T15:05:12;23.57;;;4.70;;
4650;SDS011;2338;49.602;8.722;2023-04-25T15:07:58;6.87;;;3.90;;
4650;SDS011;2338;49.602;8.722;2023-04-25T15:10:45;10.67;;;3.90;;
4650;SDS011;2338;49.602;8.722;2023-04-25T15:13:31;12.37;;;4.27;;
4650;SDS011;2338;49.602;8.722;2023-04-25T15:16:19;7.83;;;3.47;;
4650;SDS011;2338;49.602;8.722;2023-04-25T15:19:05;11.03;;;4.10;;
4650;SDS011;2338;49.602;8.722;2023-04-25T15:21:50;12.17;;;4.20;;
4650;SDS011;2338;49.602;8.722;2023-04-25T15:24:36;8.97;;;4.00;;
4650;SDS011;2338;49.602;8.722;2023-04-25T15:27:21;9.13;;;3.53;;
4650;SDS011;2338;49.602;8.722;2023-04-25T15:30:08;13.50;;;4.60;;
4650;SDS011;2338;49.602;8.722;2023-04-25T15:32:57;9.87;;;4.00;;
4650;SDS011;2338;49.602;8.722;2023-04-25T15:35:43;12.20;;;3.83;;
4650;SDS011;2338;49.602;8.722;2023-04-25T15:38:28;15.17;;;3.90;;
4650;SDS011;2338;49.602;8.722;2023-04-25T15:41:14;11.00;;;3.50;;
4650;SDS011;2338;49.602;8.722;2023-04-25T15:44:01;8.10;;;3.47;;
4650;SDS011;2338;49.602;8.722;2023-04-25T15:46:46;9.53;;;3.30;;
4650;SDS011;2338;49.602;8.722;2023-04-25T15:49:33;6.90;;;4.00;;
4650;SDS011;2338;49.602;8.722;2023-04-25T15:52:19;12.17;;;3.43;;
4650;SDS011;2338;49.602;8.722;2023-04-25T15:55:06;6.10;;;3.77;;
4650;SDS011;2338;49.602;8.722;2023-04-25T15:57:53;8.13;;;3.57;;
4650;SDS011;2338;49.602;8.722;2023-04-25T16:00:39;11.93;;;3.60;;
4650;SDS011;2338;49.602;8.722;2023-04-25T16:03:25;8.93;;;3.13;;
4650;SDS011;2338;49.602;8.722;2023-04-25T16:06:13;7.80;;;3.40;;
4650;SDS011;2338;49.602;8.722;2023-04-25T16:08:59;11.80;;;4.07;;
4650;SDS011;2338;49.602;8.722;2023-04-25T16:11:45;11.50;;;3.57;;
4650;SDS011;2338;49.602;8.722;2023-04-25T16:14:31;9.93;;;3.27;;
4650;SDS011;2338;49.602;8.722;2023-04-25T16:17:17;11.40;;;3.30;;
4650;SDS011;2338;49.602;8.722;2023-04-25T16:20:03;7.73;;;3.07;;
4650;SDS011;2338;49.602;8.722;2023-04-25T16:22:53;7.10;;;2.83;;
4650;SDS011;2338;49.602;8.722;2023-04-25T16:25:39;9.40;;;3.13;;
4650;SDS011;2338;49.602;8.722;2023-04-25T16:28:25;5.07;;;2.40;;
4650;SDS011;2338;49.602;8.722;2023-04-25T16:31:12;9.87;;;3.00;;
4650;SDS011;2338;49.602;8.722;2023-04-25T16:33:58;10.10;;;2.63;;
4650;SDS011;2338;49.602;8.722;2023-04-25T16:36:44;16.73;;;3.70;;
4650;SDS011;2338;49.602;8.722;2023-04-25T16:39:31;5.67;;;2.37;;
4650;SDS011;2338;49.602;8.722;2023-04-25T16:42:17;5.50;;;2.63;;
4650;SDS011;2338;49.602;8.722;2023-04-25T16:45:03;6.97;;;3.07;;
4650;SDS011;2338;49.602;8.722;2023-04-25T16:47:49;9.43;;;3.10;;
4650;SDS011;2338;49.602;8.722;2023-04-25T16:50:35;10.60;;;5.33;;
4650;SDS011;2338;49.602;8.722;2023-04-25T16:53:20;8.20;;;3.40;;
4650;SDS011;2338;49.602;8.722;2023-04-25T16:56:07;5.03;;;2.67;;
4650;SDS011;2338;49.602;8.722;2023-04-25T16:58:53;5.47;;;2.33;;
4650;SDS011;2338;49.602;8.722;2023-04-25T17:01:39;8.13;;;2.90;;
4650;SDS011;2338;49.602;8.722;2023-04-25T17:04:25;8.47;;;3.13;;